Time;durP1;ratioP1;P1;durP2;ratioP2;P2;SDS_P1;SDS_P2;PMS_P1;PMS_P2;Temp;Humidity;BMP_temperature;BMP_pressure;BME280_temperature;BME280_humidity;BME280_pressure;Samples;Min_cycle;Max_cycle;Signal;HPM_P1;HPM_P2
2023/12/01 00:01:06;;;;;;;2.72;1.00;;;24.70;63.40;;;;;;5075314;28;20029;-78
2023/12/01 00:03:33;;;;;;;4.00;1.23;;;24.80;64.00;;;;;;5075039;28;20024;-78
2023/12/01 00:06:00;;;;;;;5.40;1.25;;;24.80;64.60;;;;;;5073325;28;20037;-79
2023/12/01 00:08:29;;;;;;;6.82;1.60;;;24.90;65.10;;;;;;5075375;28;20021;-78
2023/12/01 00:10:56;;;;;;;5.93;1.30;;;24.90;65.30;;;;;;5075469;28;20020;-75
2023/12/01 00:13:24;;;;;;;3.67;0.90;;;25.00;65.40;;;;;;5074125;28;20112;-77
2023/12/01 00:15:51;;;;;;;2.78;0.80;;;25.10;65.60;;;;;;5074805;28;20024;-75
2023/12/01 00:18:19;;;;;;;2.85;1.20;;;25.10;65.70;;;;;;5074979;28;20021;-75
2023/12/01 00:20:46;;;;;;;3.45;1.20;;;25.20;65.60;;;;;;5074701;28;20013;-75
2023/12/01 00:23:15;;;;;;;4.93;1.50;;;25.30;66.00;;;;;;5073026;28;20044;-79
2023/12/01 00:25:44;;;;;;;5.15;1.30;;;25.30;65.00;;;;;;5074405;28;20025;-77
2023/12/01 00:28:11;;;;;;;2.05;0.93;;;25.40;65.60;;;;;;5073596;28;20104;-77
2023/12/01 00:30:40;;;;;;;3.53;1.20;;;25.60;65.90;;;;;;5074104;28;20020;-75
2023/12/01 00:33:07;;;;;;;2.30;1.00;;;25.70;64.90;;;;;;5073405;28;20017;-76
2023/12/01 00:35:34;;;;;;;2.58;1.60;;;25.80;64.70;;;;;;5074866;28;20025;-75
2023/12/01 00:38:02;;;;;;;3.42;1.10;;;25.80;64.30;;;;;;5074581;28;20034;-76
2023/12/01 00:40:29;;;;;;;5.68;1.02;;;25.80;64.20;;;;;;5075506;28;20475;-79
2023/12/01 00:42:56;;;;;;;3.90;1.08;;;25.80;64.20;;;;;;5077912;28;20036;-75
2023/12/01 00:45:24;;;;;;;4.40;1.30;;;25.90;63.70;;;;;;5074137;28;20032;-77
2023/12/01 00:47:52;;;;;;;4.60;1.38;;;26.00;63.90;;;;;;5073565;28;20028;-78
2023/12/01 00:50:20;;;;;;;4.43;1.25;;;26.10;63.60;;;;;;5072802;28;20364;-74
2023/12/01 00:52:49;;;;;;;3.25;0.90;;;26.20;63.40;;;;;;5073642;28;20028;-77
2023/12/01 00:55:16;;;;;;;4.28;0.98;;;26.20;62.30;;;;;;5073992;28;20072;-75
2023/12/01 00:57:43;;;;;;;6.60;1.52;;;26.20;62.10;;;;;;5072681;28;20021;-80
2023/12/01 01:00:11;;;;;;;2.85;0.90;;;26.20;62.20;;;;;;5072234;28;20051;-75
2023/12/01 01:02:38;;;;;;;3.42;1.40;;;26.30;62.80;;;;;;5073156;28;20502;-82
2023/12/01 01:05:08;;;;;;;5.25;1.63;;;26.30;62.20;;;;;;5073012;28;20048;-86
2023/12/01 01:07:35;;;;;;;4.38;1.17;;;26.40;62.40;;;;;;5072748;28;20028;-87
2023/12/01 01:10:02;;;;;;;6.93;1.30;;;26.50;61.90;;;;;;5072234;28;20028;-89
2023/12/01 01:12:30;;;;;;;3.17;1.00;;;26.60;61.80;;;;;;5071703;28;20020;-83
2023/12/01 01:15:02;;;;;;;4.82;1.00;;;26.60;61.60;;;;;;5069374;28;20021;-88
2023/12/01 01:17:33;;;;;;;5.53;1.17;;;26.60;61.60;;;;;;5074063;28;20104;-89
2023/12/01 01:20:04;;;;;;;3.38;1.10;;;26.60;61.60;;;;;;5073205;28;20036;-79
2023/12/01 01:22:32;;;;;;;5.35;1.35;;;26.70;61.70;;;;;;5073336;28;20497;-89
2023/12/01 01:24:59;;;;;;;3.25;1.02;;;26.80;60.60;;;;;;5073346;28;20033;-78
2023/12/01 01:27:27;;;;;;;1.58;0.80;;;26.90;61.20;;;;;;5068891;28;20025;-74
2023/12/01 01:29:54;;;;;;;3.08;1.00;;;27.00;61.20;;;;;;5053373;28;20032;-81
2023/12/01 01:32:24;;;;;;;3.35;1.00;;;27.00;61.30;;;;;;5065748;28;20040;-80
2023/12/01 01:34:51;;;;;;;3.60;1.17;;;27.10;60.50;;;;;;5073543;28;20072;-85
2023/12/01 01:37:18;;;;;;;6.60;1.10;;;27.10;60.30;;;;;;5073838;28;20483;-80
2023/12/01 01:39:46;;;;;;;6.35;1.52;;;27.20;60.50;;;;;;5073385;28;20061;-86
2023/12/01 01:42:14;;;;;;;5.55;1.83;;;27.30;60.70;;;;;;5071203;28;20441;-89
2023/12/01 01:44:41;;;;;;;3.75;1.55;;;27.30;60.10;;;;;;5074001;28;20033;-90
2023/12/01 01:47:08;;;;;;;1.90;1.17;;;27.30;60.00;;;;;;5074820;28;20031;-89
2023/12/01 01:49:37;;;;;;;3.58;1.38;;;27.30;60.20;;;;;;5073658;28;20041;-86
2023/12/01 01:52:05;;;;;;;1.92;0.90;;;27.30;59.10;;;;;;5075983;28;20055;-80
2023/12/01 01:54:33;;;;;;;4.47;1.10;;;27.30;59.70;;;;;;5078267;28;20035;-84
2023/12/01 01:57:01;;;;;;;2.90;1.13;;;27.30;59.10;;;;;;5072994;28;20029;-83
2023/12/01 01:59:28;;;;;;;2.30;0.82;;;27.30;59.20;;;;;;5075582;28;20027;-85
2023/12/01 02:01:57;;;;;;;3.08;0.90;;;27.30;59.80;;;;;;5074916;28;20021;-90
2023/12/01 02:04:25;;;;;;;2.75;1.08;;;27.30;59.30;;;;;;5075012;28;20048;-88
2023/12/01 02:06:53;;;;;;;1.77;0.88;;;27.30;59.50;;;;;;5076215;28;20070;-84
2023/12/01 02:09:21;;;;;;;2.70;0.80;;;27.20;58.90;;;;;;5079022;28;20032;-84
2023/12/01 02:11:49;;;;;;;3.80;0.82;;;27.20;59.20;;;;;;5080898;28;20020;-89
2023/12/01 02:14:16;;;;;;;1.67;0.77;;;27.20;59.50;;;;;;5076238;28;20035;-87
2023/12/01 02:16:50;;;;;;;4.10;1.20;;;27.20;59.60;;;;;;5075398;28;20070;-88
2023/12/01 02:19:18;;;;;;;2.20;0.75;;;27.20;58.90;;;;;;5075587;28;20100;-87
2023/12/01 02:21:51;;;;;;;1.75;0.68;;;27.20;57.80;;;;;;5075918;28;20031;-81
2023/12/01 02:24:18;;;;;;;2.30;0.73;;;27.20;58.10;;;;;;5086295;28;20036;-80
2023/12/01 02:26:46;;;;;;;4.55;0.93;;;27.20;57.90;;;;;;5081262;28;20511;-82
2023/12/01 02:29:13;;;;;;;1.85;0.77;;;27.20;57.50;;;;;;5075744;28;20040;-91
2023/12/01 02:31:42;;;;;;;2.75;1.00;;;27.10;57.40;;;;;;5072871;28;20054;-90
2023/12/01 02:34:09;;;;;;;2.90;0.82;;;27.20;57.80;;;;;;5086823;28;20025;-87
2023/12/01 02:36:37;;;;;;;3.17;0.80;;;27.30;58.10;;;;;;5088717;28;20021;-86
2023/12/01 02:39:07;;;;;;;2.47;0.82;;;27.30;58.50;;;;;;5075772;28;20035;-86
2023/12/01 02:41:35;;;;;;;3.15;0.77;;;27.30;57.60;;;;;;5075213;28;20047;-86
2023/12/01 02:44:02;;;;;;;3.38;0.85;;;27.30;57.80;;;;;;5073736;28;20033;-85
2023/12/01 02:46:30;;;;;;;4.78;1.02;;;27.30;58.10;;;;;;5077621;28;20018;-88
2023/12/01 02:48:58;;;;;;;4.72;0.93;;;27.30;58.00;;;;;;5079387;28;20020;-89
2023/12/01 02:51:27;;;;;;;1.08;0.80;;;27.30;57.10;;;;;;5081578;28;20020;-91
2023/12/01 02:53:56;;;;;;;3.20;0.90;;;27.30;57.60;;;;;;5083513;28;20039;-81
2023/12/01 02:56:27;;;;;;;3.67;0.90;;;27.30;58.10;;;;;;5076568;28;20434;-84
2023/12/01 02:58:55;;;;;;;1.77;0.75;;;27.40;57.50;;;;;;5082260;28;20021;-75
2023/12/01 03:01:23;;;;;;;2.55;0.73;;;27.40;56.50;;;;;;5083306;28;20031;-89
2023/12/01 03:03:51;;;;;;;5.00;1.10;;;27.30;56.30;;;;;;5081386;28;20045;-80
2023/12/01 03:06:19;;;;;;;4.07;1.83;;;27.30;57.20;;;;;;5084406;28;20096;-82
2023/12/01 03:08:46;;;;;;;1.67;0.90;;;27.40;56.90;;;;;;5070122;28;20587;-78
2023/12/01 03:11:14;;;;;;;1.95;0.80;;;27.40;56.90;;;;;;5068014;28;20014;-87
2023/12/01 03:13:44;;;;;;;2.65;0.93;;;27.30;56.10;;;;;;5078367;28;20037;-78
2023/12/01 03:16:22;;;;;;;3.95;1.00;;;27.30;57.00;;;;;;5091513;28;20020;-76
2023/12/01 03:18:56;;;;;;;5.50;1.25;;;27.40;57.50;;;;;;5088317;28;20108;-85
2023/12/01 03:21:33;;;;;;;3.40;1.00;;;27.40;57.80;;;;;;5086935;28;20027;-81
2023/12/01 03:24:11;;;;;;;3.95;0.90;;;27.40;56.60;;;;;;5091296;28;20288;-85
2023/12/01 03:26:46;;;;;;;1.52;0.80;;;27.50;57.10;;;;;;5091647;28;20012;-87
2023/12/01 03:29:15;;;;;;;4.70;1.00;;;27.50;57.00;;;;;;5087973;28;20021;-85
2023/12/01 03:31:44;;;;;;;6.13;1.00;;;27.40;56.90;;;;;;5096166;28;20016;-76
2023/12/01 03:34:12;;;;;;;4.05;0.90;;;27.40;57.00;;;;;;5094461;28;20028;-87
2023/12/01 03:36:46;;;;;;;4.60;0.90;;;27.40;57.50;;;;;;5090351;28;20406;-84
2023/12/01 03:39:20;;;;;;;2.75;0.93;;;27.40;57.20;;;;;;5090838;28;20047;-85
2023/12/01 03:41:53;;;;;;;1.20;0.70;;;27.40;57.10;;;;;;5090074;28;20044;-80
2023/12/01 03:44:26;;;;;;;3.35;1.00;;;27.30;57.50;;;;;;5089201;28;20040;-75
2023/12/01 03:46:55;;;;;;;2.45;0.90;;;27.20;57.80;;;;;;5087341;28;20036;-91
2023/12/01 03:49:22;;;;;;;5.70;0.80;;;27.00;58.40;;;;;;5089768;28;20060;-88
2023/12/01 03:51:52;;;;;;;2.92;1.23;;;27.00;58.80;;;;;;5086656;28;20020;-84
2023/12/01 03:54:27;;;;;;;2.85;0.90;;;26.80;59.20;;;;;;5084643;28;20047;-87
2023/12/01 03:56:54;;;;;;;;;;;26.80;59.40;;;;;;5117593;28;20020;-82
2023/12/01 03:59:22;;;;;;;2.42;0.70;;;26.70;59.70;;;;;;5071596;28;19999;-76
2023/12/01 04:01:52;;;;;;;6.28;1.35;;;26.70;60.10;;;;;;5085428;28;20016;-83
2023/12/01 04:04:20;;;;;;;3.72;0.75;;;26.60;60.30;;;;;;5081028;28;20075;-89
2023/12/01 04:06:47;;;;;;;3.97;1.00;;;26.50;60.30;;;;;;5081179;28;20040;-89
2023/12/01 04:09:21;;;;;;;3.90;0.98;;;26.50;60.10;;;;;;5090102;28;20024;-87
2023/12/01 04:11:54;;;;;;;2.75;0.77;;;26.50;60.50;;;;;;5088527;28;20088;-91
2023/12/01 04:14:23;;;;;;;2.00;0.80;;;26.50;59.90;;;;;;5082210;28;20021;-88
2023/12/01 04:16:52;;;;;;;6.13;1.02;;;26.50;60.60;;;;;;5076249;28;20073;-90
2023/12/01 04:19:38;;;;;;;4.70;1.00;;;26.60;60.80;;;;;;5074648;28;20021;-92
2023/12/01 04:22:07;;;;;;;3.10;0.90;;;26.60;60.90;;;;;;5080157;28;20017;-83
2023/12/01 04:24:35;;;;;;;1.92;0.65;;;26.70;60.70;;;;;;5082093;28;20040;-85
2023/12/01 04:27:05;;;;;;;3.55;0.77;;;26.70;59.30;;;;;;5082015;28;20383;-84
2023/12/01 04:29:33;;;;;;;1.45;0.70;;;26.70;59.30;;;;;;5086355;28;20035;-92
2023/12/01 04:32:02;;;;;;;4.10;0.90;;;26.70;59.80;;;;;;5096219;28;20020;-87
2023/12/01 04:34:29;;;;;;;1.70;0.68;;;26.80;59.80;;;;;;5095571;28;20065;-82
2023/12/01 04:36:58;;;;;;;6.53;0.95;;;26.80;59.60;;;;;;5095664;28;20165;-90
2023/12/01 04:39:25;;;;;;;4.22;1.00;;;26.90;59.80;;;;;;5088338;28;20386;-88
2023/12/01 04:41:52;;;;;;;4.53;1.05;;;27.00;59.20;;;;;;5075023;28;20028;-88
2023/12/01 04:44:20;;;;;;;2.05;0.80;;;27.00;58.70;;;;;;5075396;28;20047;-87
2023/12/01 04:46:48;;;;;;;2.03;0.70;;;27.00;59.00;;;;;;5072876;28;20520;-87
2023/12/01 04:49:16;;;;;;;3.05;0.90;;;27.00;58.80;;;;;;5061294;28;20414;-90
2023/12/01 04:51:43;;;;;;;5.43;0.90;;;27.00;59.40;;;;;;5074608;28;20103;-83
2023/12/01 04:54:12;;;;;;;2.90;0.98;;;27.20;59.60;;;;;;5074956;28;20376;-89
2023/12/01 04:56:39;;;;;;;6.22;1.10;;;27.20;59.60;;;;;;5074856;28;20020;-89
2023/12/01 04:59:07;;;;;;;3.45;0.80;;;27.30;59.10;;;;;;5074702;28;20020;-89
2023/12/01 05:01:35;;;;;;;3.25;0.70;;;27.30;59.10;;;;;;5074880;28;20024;-87
2023/12/01 05:04:03;;;;;;;5.82;0.70;;;27.30;58.70;;;;;;5074231;28;20056;-89
2023/12/01 05:06:31;;;;;;;7.00;1.70;;;27.30;59.00;;;;;;5074751;28;20020;-94
2023/12/01 05:08:58;;;;;;;6.88;1.00;;;27.30;58.70;;;;;;5074502;28;20025;-92
2023/12/01 05:11:27;;;;;;;2.03;0.90;;;27.20;59.20;;;;;;5074618;28;20025;-85
2023/12/01 05:13:54;;;;;;;3.92;1.10;;;27.20;59.40;;;;;;5074154;28;20027;-82
2023/12/01 05:16:23;;;;;;;4.75;0.98;;;27.00;59.30;;;;;;5073424;28;20032;-92
2023/12/01 05:18:50;;;;;;;3.78;0.73;;;27.00;59.90;;;;;;5074062;28;20036;-89
2023/12/01 05:21:18;;;;;;;4.00;0.93;;;27.00;60.20;;;;;;5072401;28;20025;-82
2023/12/01 05:23:45;;;;;;;5.80;1.15;;;27.00;60.50;;;;;;5073527;28;20039;-79
2023/12/01 05:26:12;;;;;;;5.18;1.10;;;27.10;60.30;;;;;;5074582;28;20031;-80
2023/12/01 05:28:45;;;;;;;3.30;0.90;;;27.00;60.30;;;;;;5074309;28;20032;-90
2023/12/01 05:31:13;;;;;;;4.53;1.13;;;27.00;60.30;;;;;;5074125;28;20016;-83
2023/12/01 05:33:42;;;;;;;4.78;1.30;;;27.00;60.20;;;;;;5073969;28;20033;-82
2023/12/01 05:36:14;;;;;;;4.72;1.20;;;27.00;60.40;;;;;;5075203;28;20028;-83
2023/12/01 05:38:42;;;;;;;2.83;1.20;;;26.90;60.50;;;;;;5073717;28;20024;-89
2023/12/01 05:41:10;;;;;;;6.28;1.30;;;26.90;60.40;;;;;;5068000;28;20119;-89
2023/12/01 05:43:39;;;;;;;3.78;1.27;;;26.90;60.50;;;;;;5073553;28;20045;-87
2023/12/01 05:46:06;;;;;;;4.50;1.08;;;27.00;60.30;;;;;;5073176;28;20479;-91
2023/12/01 05:48:36;;;;;;;3.42;1.17;;;27.00;60.30;;;;;;5073522;28;20157;-88
2023/12/01 05:51:04;;;;;;;6.90;1.05;;;27.00;58.70;;;;;;5073833;28;20021;-90
2023/12/01 05:53:34;;;;;;;4.07;0.93;;;26.90;58.80;;;;;;5073847;28;20035;-77
2023/12/01 05:56:02;;;;;;;2.78;1.20;;;26.90;59.00;;;;;;5074252;28;20040;-87
2023/12/01 05:58:29;;;;;;;5.25;0.90;;;26.80;58.30;;;;;;5073595;28;20020;-90
2023/12/01 06:00:57;;;;;;;7.78;1.10;;;26.70;59.20;;;;;;5072043;28;20037;-90
2023/12/01 06:03:26;;;;;;;6.10;1.17;;;26.70;60.00;;;;;;5072989;28;20051;-84
2023/12/01 06:05:53;;;;;;;6.20;1.23;;;26.70;60.10;;;;;;5073039;28;20056;-77
2023/12/01 06:08:20;;;;;;;5.35;1.00;;;26.60;60.60;;;;;;5068542;28;20029;-87
2023/12/01 06:10:49;;;;;;;4.72;1.20;;;26.50;60.80;;;;;;5067742;28;20028;-81
2023/12/01 06:13:16;;;;;;;3.17;0.93;;;26.40;60.70;;;;;;5072329;28;20024;-83
2023/12/01 06:15:44;;;;;;;5.72;0.90;;;26.30;61.00;;;;;;5072748;28;20035;-80
2023/12/01 06:18:11;;;;;;;2.83;1.02;;;26.20;61.20;;;;;;5072931;28;20085;-79
2023/12/01 06:20:39;;;;;;;2.50;1.13;;;26.00;61.60;;;;;;5070483;28;20029;-87
2023/12/01 06:23:06;;;;;;;4.18;1.13;;;26.00;61.90;;;;;;5080344;28;20031;-75
2023/12/01 06:25:38;;;;;;;6.45;1.40;;;25.90;62.00;;;;;;5073187;28;20021;-76
2023/12/01 06:28:06;;;;;;;3.53;1.02;;;25.80;62.40;;;;;;5073347;28;20024;-86
2023/12/01 06:30:35;;;;;;;4.72;1.40;;;25.70;62.90;;;;;;5071790;28;20074;-90
2023/12/01 06:33:05;;;;;;;4.03;1.40;;;25.70;63.20;;;;;;5072660;28;20037;-88
2023/12/01 06:35:32;;;;;;;5.30;1.15;;;25.50;63.40;;;;;;5072245;28;20075;-87
2023/12/01 06:38:00;;;;;;;4.35;1.10;;;25.50;63.50;;;;;;5073035;28;20081;-91
2023/12/01 06:40:27;;;;;;;3.95;0.98;;;25.40;63.60;;;;;;5072035;28;20028;-78
2023/12/01 06:42:56;;;;;;;6.38;1.20;;;25.30;64.00;;;;;;5077519;28;20102;-81
2023/12/01 06:45:28;;;;;;;6.30;1.83;;;25.10;64.20;;;;;;5072977;28;20036;-78
2023/12/01 06:47:58;;;;;;;4.18;1.13;;;25.00;64.80;;;;;;5065785;28;20163;-91
2023/12/01 06:50:28;;;;;;;5.30;1.00;;;25.00;65.10;;;;;;5060916;28;20531;-87
2023/12/01 06:52:59;;;;;;;10.70;1.63;;;24.90;65.50;;;;;;5067633;28;20720;-84
2023/12/01 06:55:26;;;;;;;5.10;1.60;;;24.90;66.10;;;;;;5072080;28;20021;-86
2023/12/01 06:57:54;;;;;;;6.82;1.55;;;24.80;66.30;;;;;;5077120;28;20025;-88
2023/12/01 07:03:00;;;;;;;6.25;1.63;;;24.80;67.00;;;;;;5081733;28;20049;-86
2023/12/01 07:05:28;;;;;;;7.85;1.73;;;24.80;67.30;;;;;;5082099;28;20040;-85
2023/12/01 07:07:57;;;;;;;5.85;1.58;;;24.80;67.50;;;;;;5076485;28;20955;-86
2023/12/01 07:10:25;;;;;;;8.13;2.00;;;24.80;67.70;;;;;;5057854;28;20063;-85
2023/12/01 07:12:53;;;;;;;7.78;1.52;;;24.80;67.60;;;;;;5056945;28;20656;-88
2023/12/01 07:15:21;;;;;;;5.65;1.27;;;24.80;67.60;;;;;;5057116;28;20031;-80
2023/12/01 07:17:53;;;;;;;6.25;1.65;;;24.80;67.50;;;;;;5056266;28;20372;-89
2023/12/01 07:20:21;;;;;;;7.43;1.42;;;24.90;67.70;;;;;;5076418;28;20016;-85
2023/12/01 07:22:49;;;;;;;6.88;1.50;;;25.00;67.60;;;;;;5067607;28;20021;-84
2023/12/01 07:25:25;;;;;;;7.47;1.52;;;25.00;67.30;;;;;;5056629;28;20407;-78
2023/12/01 07:27:57;;;;;;;5.93;1.40;;;24.90;67.40;;;;;;5060148;28;20076;-88
2023/12/01 07:30:25;;;;;;;6.38;1.40;;;24.80;67.70;;;;;;5062910;28;20359;-86
2023/12/01 07:32:54;;;;;;;7.50;1.20;;;24.80;67.50;;;;;;5069582;28;20024;-84
2023/12/01 07:35:21;;;;;;;4.25;1.20;;;24.70;67.90;;;;;;5075896;28;20028;-76
2023/12/01 07:37:52;;;;;;;8.48;1.65;;;24.70;67.90;;;;;;5075807;28;20017;-80
2023/12/01 07:40:21;;;;;;;6.32;1.75;;;24.70;68.30;;;;;;5075843;28;20021;-87
2023/12/01 07:42:56;;;;;;;10.38;1.63;;;24.60;68.50;;;;;;5074290;28;20036;-82
2023/12/01 07:45:24;;;;;;;7.07;1.48;;;24.50;68.60;;;;;;5075087;28;20041;-86
2023/12/01 07:47:54;;;;;;;6.03;1.30;;;24.40;68.90;;;;;;5075659;28;20099;-87
2023/12/01 07:50:23;;;;;;;4.30;1.10;;;24.20;69.40;;;;;;5074570;28;20051;-85
2023/12/01 07:52:51;;;;;;;6.93;1.67;;;24.20;69.60;;;;;;5074906;28;20503;-84
2023/12/01 07:55:21;;;;;;;5.80;1.50;;;24.20;69.80;;;;;;5070281;28;20025;-84
2023/12/01 07:57:49;;;;;;;8.40;1.88;;;24.20;70.00;;;;;;5074791;28;20036;-82
2023/12/01 08:00:17;;;;;;;9.30;1.48;;;24.20;70.00;;;;;;5075954;28;20021;-84
2023/12/01 08:02:46;;;;;;;6.78;1.42;;;24.20;70.10;;;;;;5075515;28;20048;-78
2023/12/01 08:05:14;;;;;;;6.00;1.70;;;24.10;70.20;;;;;;5075265;28;20487;-89
2023/12/01 08:07:45;;;;;;;8.18;1.52;;;24.10;70.40;;;;;;5075259;28;20089;-80
2023/12/01 08:10:18;;;;;;;6.20;1.65;;;24.00;70.50;;;;;;5077748;28;20367;-83
2023/12/01 08:12:47;;;;;;;8.18;1.83;;;24.00;70.70;;;;;;5075309;28;20024;-86
2023/12/01 08:15:14;;;;;;;9.35;1.70;;;23.90;70.70;;;;;;5056523;28;20025;-88
2023/12/01 08:17:43;;;;;;;10.68;2.05;;;23.80;71.00;;;;;;5072874;28;20029;-74
2023/12/01 08:20:11;;;;;;;8.55;1.73;;;23.80;71.10;;;;;;5073699;28;20024;-80
2023/12/01 08:22:39;;;;;;;9.00;2.15;;;23.80;71.30;;;;;;5057216;28;20063;-83
2023/12/01 08:25:08;;;;;;;8.98;1.98;;;23.80;71.40;;;;;;5055849;28;20040;-85
2023/12/01 08:27:36;;;;;;;4.78;1.60;;;23.80;71.40;;;;;;5056345;28;20040;-83
2023/12/01 08:30:05;;;;;;;6.78;1.63;;;23.80;71.50;;;;;;5057751;28;20021;-77
2023/12/01 08:32:32;;;;;;;10.50;1.75;;;23.80;71.60;;;;;;5075873;28;20115;-76
2023/12/01 08:35:00;;;;;;;6.68;1.60;;;23.80;71.60;;;;;;5076019;28;20498;-76
2023/12/01 08:37:28;;;;;;;8.55;1.77;;;23.70;71.70;;;;;;5075416;28;20035;-86
2023/12/01 08:39:55;;;;;;;9.93;1.55;;;23.70;72.00;;;;;;5073951;28;20028;-77
2023/12/01 08:42:23;;;;;;;7.88;1.80;;;23.70;72.20;;;;;;5074720;28;20028;-88
2023/12/01 08:44:50;;;;;;;8.50;2.03;;;23.60;72.50;;;;;;5074486;28;20637;-77
2023/12/01 08:47:20;;;;;;;6.85;1.45;;;23.50;72.80;;;;;;5075271;28;20383;-81
2023/12/01 08:49:51;;;;;;;9.43;2.28;;;23.50;73.00;;;;;;5074958;28;20032;-85
2023/12/01 08:52:18;;;;;;;10.48;1.88;;;23.40;73.10;;;;;;5074627;28;20025;-79
2023/12/01 08:54:46;;;;;;;7.35;1.70;;;23.30;73.20;;;;;;5073923;28;20032;-78
2023/12/01 08:57:13;;;;;;;8.15;1.52;;;23.30;73.30;;;;;;5076448;28;20021;-89
2023/12/01 08:59:41;;;;;;;9.00;1.67;;;23.30;73.40;;;;;;5074898;28;20020;-77
2023/12/01 09:02:08;;;;;;;7.55;1.88;;;23.20;73.60;;;;;;5076820;28;20648;-79
2023/12/01 09:04:35;;;;;;;10.10;2.50;;;23.20;73.70;;;;;;5073976;28;20373;-86
2023/12/01 09:07:04;;;;;;;12.18;2.10;;;23.20;73.90;;;;;;5074948;28;20455;-86
2023/12/01 09:09:34;;;;;;;8.48;1.88;;;23.30;74.00;;;;;;5074726;28;20111;-88
2023/12/01 09:12:03;;;;;;;9.38;1.85;;;23.20;74.20;;;;;;5074328;28;20360;-89
2023/12/01 09:14:30;;;;;;;9.95;2.13;;;23.20;74.40;;;;;;5074232;28;20380;-81
2023/12/01 09:16:58;;;;;;;8.55;1.88;;;23.20;74.80;;;;;;5074328;28;20534;-86
2023/12/01 09:19:25;;;;;;;12.73;2.50;;;23.20;75.00;;;;;;5074126;28;20032;-90
2023/12/01 09:21:53;;;;;;;11.38;2.17;;;23.10;75.10;;;;;;5074007;28;20021;-86
2023/12/01 09:24:21;;;;;;;12.73;3.20;;;23.10;75.30;;;;;;5073487;28;20090;-87
2023/12/01 09:26:49;;;;;;;9.10;2.13;;;23.10;75.40;;;;;;5074510;28;20016;-84
2023/12/01 09:29:18;;;;;;;10.10;2.10;;;23.10;75.70;;;;;;5074833;28;20027;-83
2023/12/01 09:31:47;;;;;;;11.43;2.33;;;23.10;76.00;;;;;;5071536;28;20043;-89
2023/12/01 09:34:15;;;;;;;12.80;2.75;;;23.00;75.90;;;;;;5067182;28;20036;-88
2023/12/01 09:36:45;;;;;;;10.48;2.03;;;23.00;76.30;;;;;;5074073;28;20391;-83
2023/12/01 09:39:13;;;;;;;13.93;2.30;;;23.00;76.40;;;;;;5073591;28;20455;-75
2023/12/01 09:41:49;;;;;;;10.40;2.40;;;23.00;76.50;;;;;;5073752;28;20383;-77
2023/12/01 09:44:16;;;;;;;11.57;2.20;;;23.00;76.70;;;;;;5058580;28;20037;-75
2023/12/01 09:46:49;;;;;;;8.25;1.88;;;22.90;76.70;;;;;;5060635;28;20355;-83
2023/12/01 09:49:16;;;;;;;10.93;2.08;;;22.90;76.70;;;;;;5073969;28;20101;-85
2023/12/01 09:51:44;;;;;;;17.65;2.72;;;22.80;76.80;;;;;;5073753;28;20431;-82
2023/12/01 09:54:11;;;;;;;11.05;1.73;;;22.80;76.70;;;;;;5073489;28;20028;-80
2023/12/01 09:56:38;;;;;;;11.32;2.05;;;22.80;76.70;;;;;;5076006;28;20016;-80
2023/12/01 09:59:07;;;;;;;7.93;1.83;;;22.80;76.80;;;;;;5073793;28;20468;-83
2023/12/01 10:01:35;;;;;;;7.57;1.83;;;22.80;76.90;;;;;;5053536;28;20025;-85
2023/12/01 10:04:02;;;;;;;6.32;1.80;;;22.80;76.90;;;;;;5053216;28;20045;-77
2023/12/01 10:06:29;;;;;;;7.95;1.80;;;22.70;76.90;;;;;;5055608;28;20017;-82
2023/12/01 10:08:57;;;;;;;10.07;2.25;;;22.70;77.10;;;;;;5073051;28;20028;-87
2023/12/01 10:11:25;;;;;;;9.30;2.00;;;22.70;77.10;;;;;;5073167;28;20592;-84
2023/12/01 10:13:53;;;;;;;13.13;2.35;;;22.70;77.20;;;;;;5073733;28;20031;-80
2023/12/01 10:16:21;;;;;;;12.70;2.15;;;22.70;77.40;;;;;;5074152;28;20100;-81
2023/12/01 10:19:04;;;;;;;11.07;1.83;;;22.70;77.40;;;;;;5070332;28;20487;-81
2023/12/01 10:21:58;;;;;;;15.25;2.00;;;22.70;77.40;;;;;;5072848;28;20064;-79
2023/12/01 10:24:26;;;;;;;12.27;2.20;;;22.70;77.60;;;;;;5073548;28;20051;-83
2023/12/01 10:27:00;;;;;;;9.98;1.80;;;22.70;77.60;;;;;;5073413;28;20127;-86
2023/12/01 10:29:30;;;;;;;10.05;1.90;;;22.60;77.60;;;;;;5073241;28;20115;-79
2023/12/01 10:32:01;;;;;;;11.25;2.17;;;22.60;77.60;;;;;;5075620;28;20084;-84
2023/12/01 10:34:29;;;;;;;9.65;1.65;;;22.60;77.60;;;;;;5076626;28;20426;-84
2023/12/01 10:36:57;;;;;;;9.60;1.92;;;22.50;77.70;;;;;;5077867;28;20070;-82
2023/12/01 10:39:27;;;;;;;13.35;2.42;;;22.50;77.70;;;;;;5077695;28;20032;-89
2023/12/01 10:41:59;;;;;;;11.43;2.08;;;22.50;77.70;;;;;;5076138;28;20021;-90
2023/12/01 10:44:28;;;;;;;10.63;2.00;;;22.60;77.70;;;;;;5067171;28;20040;-89
2023/12/01 10:46:56;;;;;;;13.63;2.65;;;22.50;77.70;;;;;;5078328;28;20103;-88
2023/12/01 10:49:23;;;;;;;5.68;2.10;;;22.60;77.80;;;;;;5075511;28;20126;-86
2023/12/01 10:51:54;;;;;;;10.52;2.15;;;22.50;77.80;;;;;;5073171;28;20035;-89
2023/12/01 10:54:27;;;;;;;7.45;1.73;;;22.50;77.90;;;;;;5076016;28;20036;-76
2023/12/01 10:56:56;;;;;;;6.57;1.75;;;22.50;77.90;;;;;;5074984;28;20028;-83
2023/12/01 10:59:28;;;;;;;11.45;2.30;;;22.50;77.90;;;;;;5078073;28;20063;-75
2023/12/01 11:02:00;;;;;;;9.27;1.98;;;22.50;78.00;;;;;;5078903;28;20024;-83
2023/12/01 11:04:32;;;;;;;9.57;2.08;;;22.60;77.80;;;;;;5079781;28;20503;-77
2023/12/01 11:07:44;;;;;;;10.02;2.17;;;22.50;77.80;;;;;;5081135;28;20483;-82
2023/12/01 11:10:34;;;;;;;9.32;2.05;;;22.50;77.80;;;;;;5070337;28;20028;-89
2023/12/01 11:13:14;;;;;;;13.98;2.30;;;22.50;77.80;;;;;;5068202;28;20064;-86
2023/12/01 11:15:43;;;;;;;8.20;1.60;;;22.50;77.80;;;;;;5073859;28;20036;-79
2023/12/01 11:18:11;;;;;;;10.90;2.15;;;22.50;77.90;;;;;;5078685;28;20056;-77
2023/12/01 11:20:46;;;;;;;12.25;1.60;;;22.40;77.90;;;;;;5079447;28;20029;-84
2023/12/01 11:23:15;;;;;;;9.65;1.85;;;22.40;77.80;;;;;;5077148;28;20063;-74
2023/12/01 11:25:49;;;;;;;7.90;1.92;;;22.30;78.10;;;;;;5081879;28;20020;-73
2023/12/01 11:28:22;;;;;;;8.52;1.90;;;22.30;78.20;;;;;;5078287;28;20020;-88
2023/12/01 11:31:18;;;;;;;10.38;1.58;;;22.30;78.20;;;;;;5078643;28;20032;-73
2023/12/01 11:33:53;;;;;;;9.35;1.70;;;22.30;78.30;;;;;;5069529;28;20036;-74
2023/12/01 11:36:21;;;;;;;7.53;1.85;;;22.30;78.20;;;;;;5075329;28;20028;-73
2023/12/01 11:39:16;;;;;;;10.15;2.22;;;22.30;78.30;;;;;;5079225;28;20028;-72
2023/12/01 11:41:47;;;;;;;7.53;2.40;;;22.30;78.10;;;;;;5075453;28;20483;-74
2023/12/01 11:44:29;;;;;;;8.90;1.92;;;22.20;78.00;;;;;;5075824;28;20391;-74
2023/12/01 11:46:58;;;;;;;9.98;1.60;;;22.10;78.00;;;;;;5072380;28;20024;-74
2023/12/01 11:49:31;;;;;;;8.95;1.70;;;22.00;78.20;;;;;;5073855;28;20193;-75
2023/12/01 11:52:00;;;;;;;9.98;1.90;;;22.00;78.20;;;;;;5072616;28;20379;-73
2023/12/01 11:54:28;;;;;;;10.30;2.00;;;22.00;78.30;;;;;;5080627;28;20081;-74
2023/12/01 11:56:56;;;;;;;12.25;2.20;;;22.00;78.30;;;;;;5073556;28;20031;-74
2023/12/01 11:59:27;;;;;;;10.82;2.22;;;21.90;78.20;;;;;;5073402;28;20032;-74
2023/12/01 12:01:56;;;;;;;8.68;1.83;;;22.00;78.20;;;;;;5073493;28;20028;-76
2023/12/01 12:04:25;;;;;;;10.95;1.90;;;22.00;78.30;;;;;;5072872;28;20051;-75
2023/12/01 12:06:53;;;;;;;8.73;1.73;;;22.00;78.10;;;;;;5071974;28;20024;-74
2023/12/01 12:09:20;;;;;;;6.15;1.70;;;22.00;78.20;;;;;;5074352;28;20058;-85
2023/12/01 12:11:52;;;;;;;6.25;1.75;;;22.00;78.10;;;;;;5071345;28;20025;-73
2023/12/01 12:14:28;;;;;;;9.10;1.75;;;22.00;78.20;;;;;;5071764;28;20036;-73
2023/12/01 12:16:56;;;;;;;7.13;1.70;;;22.00;78.20;;;;;;5076602;28;20115;-82
2023/12/01 12:19:24;;;;;;;9.45;2.35;;;22.00;78.00;;;;;;5071956;28;20051;-74
2023/12/01 12:21:51;;;;;;;10.32;1.95;;;22.00;77.70;;;;;;5065791;28;20029;-74
2023/12/01 12:24:19;;;;;;;8.20;1.65;;;22.00;77.90;;;;;;5067572;28;20503;-80
2023/12/01 12:26:59;;;;;;;9.00;1.95;;;22.10;77.90;;;;;;5073303;28;20021;-74
2023/12/01 12:29:27;;;;;;;7.20;1.52;;;22.10;77.90;;;;;;5072716;28;20037;-73
2023/12/01 12:31:54;;;;;;;6.93;2.15;;;22.10;77.70;;;;;;5073593;28;20123;-74
2023/12/01 12:34:22;;;;;;;6.38;1.50;;;22.10;77.70;;;;;;5071428;28;20029;-75
2023/12/01 12:36:50;;;;;;;7.07;1.40;;;22.10;77.70;;;;;;5087931;28;20028;-72
2023/12/01 12:39:18;;;;;;;4.15;1.30;;;22.10;77.60;;;;;;5072459;28;20024;-74
2023/12/01 12:41:59;;;;;;;6.97;2.00;;;22.10;77.70;;;;;;5071836;28;20079;-76
2023/12/01 12:44:30;;;;;;;8.65;1.70;;;22.20;77.80;;;;;;5070226;28;20036;-75
2023/12/01 12:47:06;;;;;;;6.65;1.50;;;22.10;77.50;;;;;;5072909;28;20062;-73
2023/12/01 12:49:34;;;;;;;4.88;1.60;;;22.10;77.60;;;;;;5073453;28;20020;-75
2023/12/01 12:52:03;;;;;;;12.57;1.77;;;22.10;77.30;;;;;;5073512;28;20024;-73
2023/12/01 12:54:30;;;;;;;9.25;1.85;;;22.00;77.30;;;;;;5074010;28;20033;-74
2023/12/01 12:56:58;;;;;;;9.20;2.65;;;22.00;77.50;;;;;;5074350;28;20111;-85
2023/12/01 12:59:25;;;;;;;7.90;1.90;;;22.00;77.60;;;;;;5087903;28;20029;-88